ESSP/NRK METAR and TAF weather

Enter ICAO airport designator
Station Type Date Time Source
ESSP METAR 2020/05/29 19:20 UTC NOAA

ESSP 291920Z AUTO 12004KT 080V140 9999 NCD 12/05 Q1028


Station Type Date Time Source
ESSP Decoded METAR 2020/05/29 19:20 UTC NOAA

Norrkoping, Sweden (ESSP) 58-35N 016-09E 0M
May 29, 2020 - 03:20 PM EDT / 2020.05.29 1920 UTC
Wind: from the ESE (120 degrees) at 5 MPH (4 KT) (direction variable):0
Visibility: greater than 7 mile(s):0
Temperature: 53 F (12 C)
Dew Point: 41 F (5 C)
Relative Humidity: 62%
Pressure (altimeter): 30.36 in. Hg (1028 hPa)
ob: ESSP 291920Z AUTO 12004KT 080V140 9999 NCD 12/05 Q1028
cycle: 19

Station Type Date Time Source
ESSP TAF 2018/01/01 02:31 UTC NOAA

TAF ESSP 010130Z 0102/0206 16002KT 9999 BKN004 PROB40 0102/0106 4000 BR SCT004

Example: see airport list